sensor_id;sensor_type;location;lat;lon;timestamp;pressure;altitude;pressure_sealevel;temperature;humidity
15674;BME280;7937;48.090;16.212;2023-02-23T00:01:54;97470.06;;;3.67;73.89
15674;BME280;7937;48.090;16.212;2023-02-23T00:04:57;97507.53;;;3.89;73.82
15674;BME280;7937;48.090;16.212;2023-02-23T00:07:59;97505.91;;;3.88;73.99
15674;BME280;7937;48.090;16.212;2023-02-23T00:11:05;97507.16;;;3.85;73.95
15674;BME280;7937;48.090;16.212;2023-02-23T00:14:07;97487.69;;;3.73;73.91
15674;BME280;7937;48.090;16.212;2023-02-23T00:17:09;97504.09;;;3.82;74.34
15674;BME280;7937;48.090;16.212;2023-02-23T00:20:16;97432.78;;;3.30;73.84
15674;BME280;7937;48.090;16.212;2023-02-23T00:23:18;97464.19;;;3.52;73.92
15674;BME280;7937;48.090;16.212;2023-02-23T00:26:23;97501.06;;;3.72;73.72
15674;BME280;7937;48.090;16.212;2023-02-23T00:29:25;97498.22;;;3.67;73.90
15674;BME280;7937;48.090;16.212;2023-02-23T00:32:28;97490.34;;;3.60;73.96
15674;BME280;7937;48.090;16.212;2023-02-23T00:35:32;97492.16;;;3.66;74.05
15674;BME280;7937;48.090;16.212;2023-02-23T00:38:35;97475.09;;;3.49;74.22
15674;BME280;7937;48.090;16.212;2023-02-23T00:41:37;97493.94;;;3.59;74.56
15674;BME280;7937;48.090;16.212;2023-02-23T00:44:40;97490.31;;;3.53;74.40
15674;BME280;7937;48.090;16.212;2023-02-23T00:47:43;97483.63;;;3.51;74.54
15674;BME280;7937;48.090;16.212;2023-02-23T00:50:46;97430.72;;;3.19;74.89
15674;BME280;7937;48.090;16.212;2023-02-23T00:53:54;97494.75;;;3.53;74.79
15674;BME280;7937;48.090;16.212;2023-02-23T00:56:57;97459.50;;;3.34;75.06
15674;BME280;7937;48.090;16.212;2023-02-23T00:59:59;97490.09;;;3.48;74.87
15674;BME280;7937;48.090;16.212;2023-02-23T01:03:01;97488.28;;;3.49;75.22
15674;BME280;7937;48.090;16.212;2023-02-23T01:06:05;97487.47;;;3.48;75.34
15674;BME280;7937;48.090;16.212;2023-02-23T01:09:10;97488.28;;;3.49;75.10
15674;BME280;7937;48.090;16.212;2023-02-23T01:12:14;97491.31;;;3.46;75.16
15674;BME280;7937;48.090;16.212;2023-02-23T01:15:19;97495.56;;;3.47;75.25
15674;BME280;7937;48.090;16.212;2023-02-23T01:18:21;97479.16;;;3.45;75.15
15674;BME280;7937;48.090;16.212;2023-02-23T01:21:26;97475.53;;;3.46;75.40
15674;BME280;7937;48.090;16.212;2023-02-23T01:24:29;97450.38;;;3.30;75.31
15674;BME280;7937;48.090;16.212;2023-02-23T01:27:31;97493.16;;;3.52;75.22
15674;BME280;7937;48.090;16.212;2023-02-23T01:30:35;97481.38;;;3.54;75.40
15674;BME280;7937;48.090;16.212;2023-02-23T01:33:38;97412.09;;;3.14;75.26
15674;BME280;7937;48.090;16.212;2023-02-23T01:36:42;97448.19;;;3.40;75.38
15674;BME280;7937;48.090;16.212;2023-02-23T01:39:44;97426.28;;;3.26;75.80
15674;BME280;7937;48.090;16.212;2023-02-23T01:42:46;97472.50;;;3.55;75.61
15674;BME280;7937;48.090;16.212;2023-02-23T01:45:48;97408.66;;;3.14;75.62
15674;BME280;7937;48.090;16.212;2023-02-23T01:48:51;97469.88;;;3.55;75.86
15674;BME280;7937;48.090;16.212;2023-02-23T01:52:04;97473.31;;;3.56;75.85
15674;BME280;7937;48.090;16.212;2023-02-23T01:55:10;97337.38;;;2.69;75.77
15674;BME280;7937;48.090;16.212;2023-02-23T01:58:16;97463.38;;;3.58;75.97
15674;BME280;7937;48.090;16.212;2023-02-23T02:01:21;97442.09;;;3.53;75.96
15674;BME280;7937;48.090;16.212;2023-02-23T02:04:23;97462.97;;;3.68;75.86
15674;BME280;7937;48.090;16.212;2023-02-23T02:07:28;97435.22;;;3.52;76.04
15674;BME280;7937;48.090;16.212;2023-02-23T02:10:31;97460.75;;;3.65;76.15
15674;BME280;7937;48.090;16.212;2023-02-23T02:13:48;97404.41;;;3.32;75.94
15674;BME280;7937;48.090;16.212;2023-02-23T02:17:08;97436.81;;;3.53;76.11
15674;BME280;7937;48.090;16.212;2023-02-23T02:38:16;97436.84;;;3.66;76.54
15674;BME280;7937;48.090;16.212;2023-02-23T02:41:37;97450.41;;;3.76;76.55
15674;BME280;7937;48.090;16.212;2023-02-23T02:45:00;97455.28;;;3.79;76.81
15674;BME280;7937;48.090;16.212;2023-02-23T02:51:24;97452.84;;;3.84;76.96
15674;BME280;7937;48.090;16.212;2023-02-23T02:54:37;97407.06;;;3.52;76.97
15674;BME280;7937;48.090;16.212;2023-02-23T02:57:41;97460.94;;;3.90;76.79
15674;BME280;7937;48.090;16.212;2023-02-23T03:00:49;97459.13;;;3.90;77.07
15674;BME280;7937;48.090;16.212;2023-02-23T03:04:20;97411.69;;;3.63;77.10
15674;BME280;7937;48.090;16.212;2023-02-23T03:07:58;97465.38;;;3.96;77.07
15674;BME280;7937;48.090;16.212;2023-02-23T03:11:26;97457.88;;;3.99;76.98
15674;BME280;7937;48.090;16.212;2023-02-23T03:14:54;97476.91;;;4.08;76.77
15674;BME280;7937;48.090;16.212;2023-02-23T03:29:58;97432.16;;;3.81;76.12
15674;BME280;7937;48.090;16.212;2023-02-23T03:33:38;97472.88;;;4.05;75.73
15674;BME280;7937;48.090;16.212;2023-02-23T03:37:08;97471.06;;;3.99;75.75
15674;BME280;7937;48.090;16.212;2023-02-23T03:40:37;97474.50;;;3.93;75.51
15674;BME280;7937;48.090;16.212;2023-02-23T03:44:06;97475.91;;;3.89;75.83
15674;BME280;7937;48.090;16.212;2023-02-23T03:47:32;97453.22;;;3.68;75.74
15674;BME280;7937;48.090;16.212;2023-02-23T03:51:00;97442.09;;;3.59;75.58
15674;BME280;7937;48.090;16.212;2023-02-23T03:54:36;97356.00;;;2.94;75.13
15674;BME280;7937;48.090;16.212;2023-02-23T03:58:00;97432.56;;;3.39;75.07
15674;BME280;7937;48.090;16.212;2023-02-23T04:01:24;97492.97;;;3.67;75.25
15674;BME280;7937;48.090;16.212;2023-02-23T04:04:47;97461.13;;;3.42;75.19
15674;BME280;7937;48.090;16.212;2023-02-23T04:08:11;97485.25;;;3.58;75.01
15674;BME280;7937;48.090;16.212;2023-02-23T04:11:41;97443.91;;;3.26;74.72
15674;BME280;7937;48.090;16.212;2023-02-23T04:15:23;97492.13;;;3.53;74.91
15674;BME280;7937;48.090;16.212;2023-02-23T04:18:30;97463.16;;;3.40;74.82
15674;BME280;7937;48.090;16.212;2023-02-23T04:21:33;97446.72;;;3.24;74.47
15674;BME280;7937;48.090;16.212;2023-02-23T04:24:35;97443.88;;;3.13;74.53
15674;BME280;7937;48.090;16.212;2023-02-23T04:27:37;97431.31;;;3.08;74.45
15674;BME280;7937;48.090;16.212;2023-02-23T04:30:39;97498.00;;;3.42;74.56
15674;BME280;7937;48.090;16.212;2023-02-23T04:33:41;97485.63;;;3.29;74.51
15674;BME280;7937;48.090;16.212;2023-02-23T04:36:43;97495.34;;;3.28;74.63
15674;BME280;7937;48.090;16.212;2023-02-23T04:39:45;97499.59;;;3.23;74.76
15674;BME280;7937;48.090;16.212;2023-02-23T04:42:51;97434.50;;;2.77;74.56
15674;BME280;7937;48.090;16.212;2023-02-23T04:45:53;97474.63;;;2.99;74.84
15674;BME280;7937;48.090;16.212;2023-02-23T04:48:55;97506.84;;;3.14;74.54
15674;BME280;7937;48.090;16.212;2023-02-23T04:51:57;97500.97;;;3.12;74.44
15674;BME280;7937;48.090;16.212;2023-02-23T04:55:00;97499.75;;;3.08;74.65
15674;BME280;7937;48.090;16.212;2023-02-23T04:58:02;97438.31;;;2.68;75.05
15674;BME280;7937;48.090;16.212;2023-02-23T05:01:06;97499.91;;;3.00;74.83
15674;BME280;7937;48.090;16.212;2023-02-23T05:04:08;97500.72;;;3.00;74.85
15674;BME280;7937;48.090;16.212;2023-02-23T05:07:10;97500.34;;;2.97;75.04
15674;BME280;7937;48.090;16.212;2023-02-23T05:10:12;97498.88;;;2.94;75.27
15674;BME280;7937;48.090;16.212;2023-02-23T05:13:14;97491.44;;;2.98;75.18
15674;BME280;7937;48.090;16.212;2023-02-23T05:16:16;97494.88;;;2.98;75.29
15674;BME280;7937;48.090;16.212;2023-02-23T05:19:19;97472.78;;;2.86;75.10
15674;BME280;7937;48.090;16.212;2023-02-23T05:22:21;97497.88;;;2.95;75.65
15674;BME280;7937;48.090;16.212;2023-02-23T05:25:23;97493.84;;;2.99;75.61
15674;BME280;7937;48.090;16.212;2023-02-23T05:28:26;97454.53;;;2.71;75.99
15674;BME280;7937;48.090;16.212;2023-02-23T05:31:28;97446.59;;;2.65;75.80
15674;BME280;7937;48.090;16.212;2023-02-23T05:34:30;97498.31;;;2.99;75.89
15674;BME280;7937;48.090;16.212;2023-02-23T05:37:32;97500.13;;;2.98;75.50
15674;BME280;7937;48.090;16.212;2023-02-23T05:40:35;97498.28;;;2.92;76.26
15674;BME280;7937;48.090;16.212;2023-02-23T05:43:37;97504.78;;;2.96;76.67
15674;BME280;7937;48.090;16.212;2023-02-23T05:46:40;97507.81;;;3.00;76.43
15674;BME280;7937;48.090;16.212;2023-02-23T05:49:42;97506.78;;;2.94;76.12
15674;BME280;7937;48.090;16.212;2023-02-23T05:52:46;97510.63;;;2.92;76.33
15674;BME280;7937;48.090;16.212;2023-02-23T05:55:48;97518.31;;;2.93;76.62
15674;BME280;7937;48.090;16.212;2023-02-23T05:58:53;97500.47;;;2.82;76.33
15674;BME280;7937;48.090;16.212;2023-02-23T06:01:55;97515.09;;;2.98;76.41
15674;BME280;7937;48.090;16.212;2023-02-23T06:04:57;97485.50;;;2.76;76.85
15674;BME280;7937;48.090;16.212;2023-02-23T06:07:59;97528.91;;;3.06;77.01
15674;BME280;7937;48.090;16.212;2023-02-23T06:11:02;97486.53;;;2.81;76.87
15674;BME280;7937;48.090;16.212;2023-02-23T06:14:04;97530.34;;;3.16;76.97
15674;BME280;7937;48.090;16.212;2023-02-23T06:17:06;97483.91;;;2.88;76.92
15674;BME280;7937;48.090;16.212;2023-02-23T06:20:09;97490.03;;;3.02;76.93
15674;BME280;7937;48.090;16.212;2023-02-23T06:23:12;97538.09;;;3.37;77.09
15674;BME280;7937;48.090;16.212;2023-02-23T06:26:16;97542.16;;;3.46;77.10
15674;BME280;7937;48.090;16.212;2023-02-23T06:29:18;97553.94;;;3.57;77.48
15674;BME280;7937;48.090;16.212;2023-02-23T06:32:20;97538.94;;;3.64;77.48
15674;BME280;7937;48.090;16.212;2023-02-23T06:35:24;97547.06;;;3.76;77.31
15674;BME280;7937;48.090;16.212;2023-02-23T06:38:28;97507.16;;;3.66;77.44
15674;BME280;7937;48.090;16.212;2023-02-23T06:41:31;97550.31;;;3.98;76.98
15674;BME280;7937;48.090;16.212;2023-02-23T06:44:33;97512.59;;;3.84;76.81
15674;BME280;7937;48.090;16.212;2023-02-23T06:47:36;97530.06;;;4.05;76.38
15674;BME280;7937;48.090;16.212;2023-02-23T06:50:38;97559.44;;;4.22;76.50
15674;BME280;7937;48.090;16.212;2023-02-23T06:53:40;97554.34;;;4.33;76.24
15674;BME280;7937;48.090;16.212;2023-02-23T06:56:42;97562.66;;;4.44;75.77
15674;BME280;7937;48.090;16.212;2023-02-23T06:59:44;97552.50;;;4.54;75.47
15674;BME280;7937;48.090;16.212;2023-02-23T07:02:46;97516.44;;;4.34;75.09
15674;BME280;7937;48.090;16.212;2023-02-23T07:05:48;97512.34;;;4.45;74.61
15674;BME280;7937;48.090;16.212;2023-02-23T07:08:50;97568.84;;;4.82;74.59
15674;BME280;7937;48.090;16.212;2023-02-23T07:11:52;97549.59;;;4.75;74.50
15674;BME280;7937;48.090;16.212;2023-02-23T07:14:54;97565.97;;;4.97;74.42
15674;BME280;7937;48.090;16.212;2023-02-23T07:17:57;97573.66;;;5.05;74.50
15674;BME280;7937;48.090;16.212;2023-02-23T07:20:59;97573.00;;;5.16;74.29
15674;BME280;7937;48.090;16.212;2023-02-23T07:24:01;97575.59;;;5.30;73.84
15674;BME280;7937;48.090;16.212;2023-02-23T07:27:05;97581.19;;;5.47;73.97
15674;BME280;7937;48.090;16.212;2023-02-23T07:30:08;97431.47;;;4.71;73.43
15674;BME280;7937;48.090;16.212;2023-02-23T07:33:10;97577.53;;;5.79;73.22
15674;BME280;7937;48.090;16.212;2023-02-23T07:36:12;97581.34;;;5.97;73.31
15674;BME280;7937;48.090;16.212;2023-02-23T07:39:14;97575.44;;;6.19;72.82
15674;BME280;7937;48.090;16.212;2023-02-23T07:42:16;97575.06;;;6.41;72.66
15674;BME280;7937;48.090;16.212;2023-02-23T07:45:19;97570.81;;;6.58;72.38
15674;BME280;7937;48.090;16.212;2023-02-23T07:48:21;97564.94;;;6.75;72.14
15674;BME280;7937;48.090;16.212;2023-02-23T07:51:23;97570.47;;;6.91;72.12
15674;BME280;7937;48.090;16.212;2023-02-23T07:54:26;97558.09;;;7.04;71.42
15674;BME280;7937;48.090;16.212;2023-02-23T07:57:28;97582.31;;;7.26;71.52
15674;BME280;7937;48.090;16.212;2023-02-23T08:00:30;97572.56;;;7.38;70.83
15674;BME280;7937;48.090;16.212;2023-02-23T08:03:33;97588.53;;;7.49;70.32
15674;BME280;7937;48.090;16.212;2023-02-23T08:06:35;97570.78;;;7.50;70.22
15674;BME280;7937;48.090;16.212;2023-02-23T08:09:37;97532.41;;;7.53;69.96
15674;BME280;7937;48.090;16.212;2023-02-23T08:12:40;97552.00;;;7.93;68.64
15674;BME280;7937;48.090;16.212;2023-02-23T08:15:42;97532.28;;;7.89;68.19
15674;BME280;7937;48.090;16.212;2023-02-23T08:18:44;97579.16;;;8.31;67.96
15674;BME280;7937;48.090;16.212;2023-02-23T08:21:47;97582.09;;;8.52;67.59
15674;BME280;7937;48.090;16.212;2023-02-23T08:24:50;97531.97;;;8.56;66.60
15674;BME280;7937;48.090;16.212;2023-02-23T08:27:53;97449.22;;;8.36;65.43
15674;BME280;7937;48.090;16.212;2023-02-23T08:30:55;97583.91;;;9.51;63.98
15674;BME280;7937;48.090;16.212;2023-02-23T08:33:58;97569.53;;;9.80;62.50
15674;BME280;7937;48.090;16.212;2023-02-23T08:37:00;97586.88;;;10.45;61.29
15674;BME280;7937;48.090;16.212;2023-02-23T08:40:02;97559.41;;;10.62;59.64
15674;BME280;7937;48.090;16.212;2023-02-23T08:43:04;97587.25;;;10.71;59.64
15674;BME280;7937;48.090;16.212;2023-02-23T08:46:07;97534.50;;;10.34;59.68
15674;BME280;7937;48.090;16.212;2023-02-23T08:49:09;97567.81;;;10.37;60.39
15674;BME280;7937;48.090;16.212;2023-02-23T08:52:12;97588.00;;;10.49;60.16
15674;BME280;7937;48.090;16.212;2023-02-23T08:55:14;97587.34;;;10.59;60.31
15674;BME280;7937;48.090;16.212;2023-02-23T08:58:18;97577.44;;;10.54;59.58
15674;BME280;7937;48.090;16.212;2023-02-23T09:01:20;97580.31;;;10.53;60.09
15674;BME280;7937;48.090;16.212;2023-02-23T09:04:23;97542.00;;;10.37;59.98
15674;BME280;7937;48.090;16.212;2023-02-23T09:07:25;97588.03;;;10.71;59.26
15674;BME280;7937;48.090;16.212;2023-02-23T09:10:27;97588.75;;;10.83;58.77
15674;BME280;7937;48.090;16.212;2023-02-23T09:13:30;97589.56;;;10.84;58.89
15674;BME280;7937;48.090;16.212;2023-02-23T09:16:32;97584.63;;;11.15;58.26
15674;BME280;7937;48.090;16.212;2023-02-23T09:19:36;97545.22;;;10.78;58.25
15674;BME280;7937;48.090;16.212;2023-02-23T09:22:44;97537.44;;;10.93;58.41
15674;BME280;7937;48.090;16.212;2023-02-23T09:25:49;97566.41;;;11.06;58.26
15674;BME280;7937;48.090;16.212;2023-02-23T09:28:51;97588.03;;;11.32;57.71
15674;BME280;7937;48.090;16.212;2023-02-23T09:31:53;97573.47;;;11.18;57.62
15674;BME280;7937;48.090;16.212;2023-02-23T09:34:59;97554.00;;;11.17;57.63
15674;BME280;7937;48.090;16.212;2023-02-23T09:38:02;97555.75;;;11.28;57.27
15674;BME280;7937;48.090;16.212;2023-02-23T09:41:15;97588.91;;;11.59;57.00
15674;BME280;7937;48.090;16.212;2023-02-23T09:47:58;97582.22;;;12.11;55.30
15674;BME280;7937;48.090;16.212;2023-02-23T09:51:07;97585.13;;;12.36;54.98
15674;BME280;7937;48.090;16.212;2023-02-23T09:54:14;97515.69;;;12.04;55.25
15674;BME280;7937;48.090;16.212;2023-02-23T09:57:24;97484.28;;;11.84;54.13
15674;BME280;7937;48.090;16.212;2023-02-23T10:00:35;97571.53;;;12.43;53.99
15674;BME280;7937;48.090;16.212;2023-02-23T10:04:29;97586.56;;;12.54;53.41
15674;BME280;7937;48.090;16.212;2023-02-23T10:14:03;97573.13;;;13.34;51.97
15674;BME280;7937;48.090;16.212;2023-02-23T10:20:57;97573.97;;;13.45;51.12
15674;BME280;7937;48.090;16.212;2023-02-23T10:27:19;97567.59;;;13.56;50.70
15674;BME280;7937;48.090;16.212;2023-02-23T10:30:25;97573.03;;;13.97;49.77
15674;BME280;7937;48.090;16.212;2023-02-23T10:33:33;97578.41;;;14.22;48.80
15674;BME280;7937;48.090;16.212;2023-02-23T10:36:42;97577.31;;;14.23;48.16
15674;BME280;7937;48.090;16.212;2023-02-23T10:39:44;97554.22;;;13.56;49.46
15674;BME280;7937;48.090;16.212;2023-02-23T10:42:50;97581.47;;;13.48;50.01
15674;BME280;7937;48.090;16.212;2023-02-23T10:45:54;97547.44;;;13.28;50.06
15674;BME280;7937;48.090;16.212;2023-02-23T10:48:56;97533.81;;;13.39;50.14
15674;BME280;7937;48.090;16.212;2023-02-23T10:52:01;97566.00;;;13.55;49.86
15674;BME280;7937;48.090;16.212;2023-02-23T10:55:06;97568.16;;;13.68;49.66
15674;BME280;7937;48.090;16.212;2023-02-23T10:58:13;97547.50;;;13.48;49.73
15674;BME280;7937;48.090;16.212;2023-02-23T11:04:34;97533.13;;;14.31;48.07
15674;BME280;7937;48.090;16.212;2023-02-23T11:07:36;97514.38;;;14.26;47.55
15674;BME280;7937;48.090;16.212;2023-02-23T11:10:40;97546.53;;;14.56;47.59
15674;BME280;7937;48.090;16.212;2023-02-23T11:13:44;97542.22;;;14.70;47.10
15674;BME280;7937;48.090;16.212;2023-02-23T11:16:47;97551.63;;;14.68;46.92
15674;BME280;7937;48.090;16.212;2023-02-23T11:19:49;97542.53;;;14.59;47.48
15674;BME280;7937;48.090;16.212;2023-02-23T11:22:51;97517.31;;;14.44;47.60
15674;BME280;7937;48.090;16.212;2023-02-23T11:26:03;97543.03;;;14.66;47.55
15674;BME280;7937;48.090;16.212;2023-02-23T11:32:30;97503.13;;;14.24;47.57
15674;BME280;7937;48.090;16.212;2023-02-23T11:35:34;97530.72;;;14.34;48.40
15674;BME280;7937;48.090;16.212;2023-02-23T11:38:36;97524.00;;;14.27;48.04
15674;BME280;7937;48.090;16.212;2023-02-23T11:41:38;97495.09;;;14.08;48.58
15674;BME280;7937;48.090;16.212;2023-02-23T11:44:40;97506.84;;;14.43;47.85
15674;BME280;7937;48.090;16.212;2023-02-23T11:47:47;97509.53;;;14.58;47.37
15674;BME280;7937;48.090;16.212;2023-02-23T11:50:52;97483.78;;;14.62;46.86
15674;BME280;7937;48.090;16.212;2023-02-23T11:53:54;97504.13;;;14.79;46.55
15674;BME280;7937;48.090;16.212;2023-02-23T11:56:56;97498.16;;;14.92;46.59
15674;BME280;7937;48.090;16.212;2023-02-23T12:00:01;97463.72;;;14.55;46.71
15674;BME280;7937;48.090;16.212;2023-02-23T12:03:20;97492.09;;;14.61;47.14
15674;BME280;7937;48.090;16.212;2023-02-23T12:06:28;97486.22;;;14.54;47.60
15674;BME280;7937;48.090;16.212;2023-02-23T12:09:33;97498.78;;;14.68;47.31
15674;BME280;7937;48.090;16.212;2023-02-23T12:16:40;97500.91;;;14.71;47.96
15674;BME280;7937;48.090;16.212;2023-02-23T12:20:03;97465.31;;;14.40;47.90
15674;BME280;7937;48.090;16.212;2023-02-23T12:23:09;97507.91;;;14.47;47.84
15674;BME280;7937;48.090;16.212;2023-02-23T12:26:16;97501.00;;;13.95;49.44
15674;BME280;7937;48.090;16.212;2023-02-23T12:33:03;97496.69;;;13.79;49.74
15674;BME280;7937;48.090;16.212;2023-02-23T12:36:22;97493.47;;;13.77;49.84
15674;BME280;7937;48.090;16.212;2023-02-23T12:39:34;97463.50;;;13.64;50.61
15674;BME280;7937;48.090;16.212;2023-02-23T12:43:06;97485.19;;;13.88;49.36
15674;BME280;7937;48.090;16.212;2023-02-23T12:46:17;97431.38;;;13.64;49.88
15674;BME280;7937;48.090;16.212;2023-02-23T12:49:34;97428.94;;;13.68;49.81
15674;BME280;7937;48.090;16.212;2023-02-23T12:57:21;97437.25;;;13.56;49.35
15674;BME280;7937;48.090;16.212;2023-02-23T13:01:20;97468.88;;;13.80;49.35
15674;BME280;7937;48.090;16.212;2023-02-23T13:04:13;97423.06;;;13.35;49.84
15674;BME280;7937;48.090;16.212;2023-02-23T13:07:37;97414.44;;;13.18;50.65
15674;BME280;7937;48.090;16.212;2023-02-23T13:17:37;97464.34;;;12.87;52.76
15674;BME280;7937;48.090;16.212;2023-02-23T13:24:04;97446.38;;;12.72;52.69
15674;BME280;7937;48.090;16.212;2023-02-23T13:27:18;97434.34;;;12.75;52.72
15674;BME280;7937;48.090;16.212;2023-02-23T13:30:22;97457.16;;;12.93;53.14
15674;BME280;7937;48.090;16.212;2023-02-23T13:33:28;97467.25;;;12.80;53.09
15674;BME280;7937;48.090;16.212;2023-02-23T13:36:44;97448.28;;;12.82;52.78
15674;BME280;7937;48.090;16.212;2023-02-23T13:39:51;97473.78;;;13.15;52.84
15674;BME280;7937;48.090;16.212;2023-02-23T13:49:36;97476.03;;;13.43;52.33
15674;BME280;7937;48.090;16.212;2023-02-23T13:52:43;97468.31;;;13.62;51.56
15674;BME280;7937;48.090;16.212;2023-02-23T13:55:47;97459.19;;;13.68;50.89
15674;BME280;7937;48.090;16.212;2023-02-23T14:01:54;97464.03;;;13.66;51.02
15674;BME280;7937;48.090;16.212;2023-02-23T14:05:18;97454.13;;;13.62;51.15
15674;BME280;7937;48.090;16.212;2023-02-23T14:08:30;97463.22;;;13.56;51.52
15674;BME280;7937;48.090;16.212;2023-02-23T14:18:29;97452.50;;;13.46;51.56
15674;BME280;7937;48.090;16.212;2023-02-23T14:28:41;97394.28;;;12.85;52.96
15674;BME280;7937;48.090;16.212;2023-02-23T14:35:00;97445.69;;;13.02;52.99
15674;BME280;7937;48.090;16.212;2023-02-23T14:38:16;97449.44;;;13.01;53.16
15674;BME280;7937;48.090;16.212;2023-02-23T14:44:55;97417.47;;;12.64;53.47
15674;BME280;7937;48.090;16.212;2023-02-23T14:48:05;97430.03;;;12.63;53.84
15674;BME280;7937;48.090;16.212;2023-02-23T14:51:17;97445.56;;;12.67;54.44
15674;BME280;7937;48.090;16.212;2023-02-23T14:54:32;97440.69;;;12.53;54.33
15674;BME280;7937;48.090;16.212;2023-02-23T14:57:35;97387.06;;;12.12;54.65
15674;BME280;7937;48.090;16.212;2023-02-23T15:00:41;97414.81;;;12.17;54.96
15674;BME280;7937;48.090;16.212;2023-02-23T15:04:10;97417.50;;;12.17;55.05
15674;BME280;7937;48.090;16.212;2023-02-23T15:10:34;97381.84;;;11.91;55.59
15674;BME280;7937;48.090;16.212;2023-02-23T15:13:39;97428.44;;;12.15;55.73
15674;BME280;7937;48.090;16.212;2023-02-23T15:16:43;97405.09;;;11.95;56.21
15674;BME280;7937;48.090;16.212;2023-02-23T15:19:53;97420.59;;;11.98;56.17
15674;BME280;7937;48.090;16.212;2023-02-23T15:23:16;97423.78;;;11.95;56.40
15674;BME280;7937;48.090;16.212;2023-02-23T15:26:27;97415.72;;;11.90;56.58
15674;BME280;7937;48.090;16.212;2023-02-23T15:29:32;97419.72;;;11.87;56.57
15674;BME280;7937;48.090;16.212;2023-02-23T15:32:36;97416.19;;;11.82;56.85
15674;BME280;7937;48.090;16.212;2023-02-23T15:38:50;97420.94;;;11.75;57.20
15674;BME280;7937;48.090;16.212;2023-02-23T15:41:54;97424.09;;;11.72;57.36
15674;BME280;7937;48.090;16.212;2023-02-23T15:44:59;97370.50;;;11.41;57.62
15674;BME280;7937;48.090;16.212;2023-02-23T15:48:06;97418.72;;;11.67;58.11
15674;BME280;7937;48.090;16.212;2023-02-23T15:54:57;97409.22;;;11.44;58.80
15674;BME280;7937;48.090;16.212;2023-02-23T15:58:15;97358.22;;;11.08;59.52
15674;BME280;7937;48.090;16.212;2023-02-23T16:04:30;97411.19;;;11.26;59.76
15674;BME280;7937;48.090;16.212;2023-02-23T16:07:40;97396.84;;;11.05;60.25
15674;BME280;7937;48.090;16.212;2023-02-23T16:10:45;97408.63;;;11.09;60.80
15674;BME280;7937;48.090;16.212;2023-02-23T16:13:50;97359.47;;;10.73;61.34
15674;BME280;7937;48.090;16.212;2023-02-23T16:16:53;97389.47;;;10.85;61.12
15674;BME280;7937;48.090;16.212;2023-02-23T16:20:15;97394.41;;;10.77;61.66
15674;BME280;7937;48.090;16.212;2023-02-23T16:23:28;97356.47;;;10.43;62.08
15674;BME280;7937;48.090;16.212;2023-02-23T16:26:55;97410.53;;;10.65;61.95
15674;BME280;7937;48.090;16.212;2023-02-23T16:30:20;97407.03;;;10.59;62.53
15674;BME280;7937;48.090;16.212;2023-02-23T16:34:16;97396.84;;;10.56;62.72
15674;BME280;7937;48.090;16.212;2023-02-23T16:36:55;97381.97;;;10.39;62.95
15674;BME280;7937;48.090;16.212;2023-02-23T16:39:58;97399.34;;;10.41;63.14
15674;BME280;7937;48.090;16.212;2023-02-23T16:43:02;97407.25;;;10.36;62.98
15674;BME280;7937;48.090;16.212;2023-02-23T16:46:05;97398.16;;;10.32;63.66
15674;BME280;7937;48.090;16.212;2023-02-23T16:49:10;97360.44;;;10.01;63.71
15674;BME280;7937;48.090;16.212;2023-02-23T16:52:17;97395.25;;;10.17;64.02
15674;BME280;7937;48.090;16.212;2023-02-23T16:55:22;97398.66;;;10.12;63.96
15674;BME280;7937;48.090;16.212;2023-02-23T16:58:28;97329.31;;;9.63;64.09
15674;BME280;7937;48.090;16.212;2023-02-23T17:01:32;97395.94;;;10.07;64.34
15674;BME280;7937;48.090;16.212;2023-02-23T17:04:34;97356.31;;;9.72;64.76
15674;BME280;7937;48.090;16.212;2023-02-23T17:07:37;97359.78;;;9.72;64.58
15674;BME280;7937;48.090;16.212;2023-02-23T17:10:42;97399.25;;;9.97;64.93
15674;BME280;7937;48.090;16.212;2023-02-23T17:13:47;97390.31;;;9.87;65.03
15674;BME280;7937;48.090;16.212;2023-02-23T17:16:49;97337.63;;;9.50;65.25
15674;BME280;7937;48.090;16.212;2023-02-23T17:19:53;97364.53;;;9.53;65.42
15674;BME280;7937;48.090;16.212;2023-02-23T17:22:58;97407.72;;;9.77;65.58
15674;BME280;7937;48.090;16.212;2023-02-23T17:26:01;97375.56;;;9.45;65.81
15674;BME280;7937;48.090;16.212;2023-02-23T17:29:04;97376.16;;;9.47;65.71
15674;BME280;7937;48.090;16.212;2023-02-23T17:32:07;97398.06;;;9.54;66.01
15674;BME280;7937;48.090;16.212;2023-02-23T17:35:10;97407.16;;;9.59;66.48
15674;BME280;7937;48.090;16.212;2023-02-23T17:38:15;97381.88;;;9.39;66.77
15674;BME280;7937;48.090;16.212;2023-02-23T17:41:23;97407.09;;;9.53;66.51
15674;BME280;7937;48.090;16.212;2023-02-23T17:44:27;97407.91;;;9.54;66.59
15674;BME280;7937;48.090;16.212;2023-02-23T17:47:33;97403.88;;;9.51;66.76
15674;BME280;7937;48.090;16.212;2023-02-23T17:50:38;97397.44;;;9.47;66.56
15674;BME280;7937;48.090;16.212;2023-02-23T17:53:42;97404.53;;;9.42;66.68
15674;BME280;7937;48.090;16.212;2023-02-23T17:56:45;97393.09;;;9.41;66.84
15674;BME280;7937;48.090;16.212;2023-02-23T17:59:48;97410.38;;;9.44;66.79
15674;BME280;7937;48.090;16.212;2023-02-23T18:02:53;97379.44;;;9.21;67.02
15674;BME280;7937;48.090;16.212;2023-02-23T18:06:10;97404.19;;;9.38;66.74
15674;BME280;7937;48.090;16.212;2023-02-23T18:09:13;97405.00;;;9.39;67.07
15674;BME280;7937;48.090;16.212;2023-02-23T18:12:17;97402.50;;;9.32;67.37
15674;BME280;7937;48.090;16.212;2023-02-23T18:15:21;97404.56;;;9.30;67.09
15674;BME280;7937;48.090;16.212;2023-02-23T18:18:26;97368.53;;;9.05;67.37
15674;BME280;7937;48.090;16.212;2023-02-23T18:21:30;97409.72;;;9.20;67.54
15674;BME280;7937;48.090;16.212;2023-02-23T18:24:37;97397.38;;;9.14;67.84
15674;BME280;7937;48.090;16.212;2023-02-23T18:27:41;97414.13;;;9.14;67.83
15674;BME280;7937;48.090;16.212;2023-02-23T18:30:44;97403.75;;;9.13;67.60
15674;BME280;7937;48.090;16.212;2023-02-23T18:33:48;97406.06;;;9.09;67.88
15674;BME280;7937;48.090;16.212;2023-02-23T18:36:56;97377.53;;;8.88;67.84
15674;BME280;7937;48.090;16.212;2023-02-23T18:40:04;97409.19;;;9.06;67.99
15674;BME280;7937;48.090;16.212;2023-02-23T18:43:08;97406.22;;;9.02;68.01